sensor_id;sensor_type;location;lat;lon;timestamp;P1;durP1;ratioP1;P2;durP2;ratioP2
52396;SDS011;38322;53.108;6.308;2023-04-28T05:03:06;19.80;;;14.18;;
52396;SDS011;38322;53.108;6.308;2023-04-28T05:05:33;20.58;;;15.50;;
52396;SDS011;38322;53.108;6.308;2023-04-28T05:07:58;21.38;;;14.38;;
52396;SDS011;38322;53.108;6.308;2023-04-28T05:10:24;25.10;;;14.98;;
52396;SDS011;38322;53.108;6.308;2023-04-28T05:12:51;23.15;;;14.15;;
52396;SDS011;38322;53.108;6.308;2023-04-28T05:15:17;20.65;;;13.98;;
52396;SDS011;38322;53.108;6.308;2023-04-28T05:17:42;36.47;;;16.67;;
52396;SDS011;38322;53.108;6.308;2023-04-28T05:20:08;22.42;;;14.93;;
52396;SDS011;38322;53.108;6.308;2023-04-28T05:22:34;24.20;;;14.00;;
52396;SDS011;38322;53.108;6.308;2023-04-28T05:25:00;24.42;;;15.43;;
52396;SDS011;38322;53.108;6.308;2023-04-28T05:27:26;20.65;;;14.60;;
52396;SDS011;38322;53.108;6.308;2023-04-28T05:29:51;18.98;;;13.73;;
52396;SDS011;38322;53.108;6.308;2023-04-28T05:32:17;23.60;;;12.93;;
52396;SDS011;38322;53.108;6.308;2023-04-28T05:34:43;28.67;;;15.10;;
52396;SDS011;38322;53.108;6.308;2023-04-28T05:37:09;23.52;;;14.40;;
52396;SDS011;38322;53.108;6.308;2023-04-28T05:39:34;23.45;;;14.45;;
52396;SDS011;38322;53.108;6.308;2023-04-28T05:42:00;20.83;;;14.00;;
52396;SDS011;38322;53.108;6.308;2023-04-28T05:44:27;20.48;;;15.30;;
52396;SDS011;38322;53.108;6.308;2023-04-28T05:46:53;24.15;;;14.73;;
52396;SDS011;38322;53.108;6.308;2023-04-28T05:49:19;20.92;;;13.10;;
52396;SDS011;38322;53.108;6.308;2023-04-28T05:51:45;16.65;;;12.82;;
52396;SDS011;38322;53.108;6.308;2023-04-28T05:54:11;21.67;;;14.00;;
52396;SDS011;38322;53.108;6.308;2023-04-28T05:56:36;16.95;;;12.18;;
52396;SDS011;38322;53.108;6.308;2023-04-28T05:59:02;18.40;;;12.63;;
52396;SDS011;38322;53.108;6.308;2023-04-28T06:01:30;22.60;;;14.25;;
52396;SDS011;38322;53.108;6.308;2023-04-28T06:03:56;19.05;;;12.85;;
52396;SDS011;38322;53.108;6.308;2023-04-28T06:06:23;19.27;;;13.15;;
52396;SDS011;38322;53.108;6.308;2023-04-28T06:08:49;18.23;;;12.02;;
52396;SDS011;38322;53.108;6.308;2023-04-28T06:11:15;17.85;;;12.25;;
52396;SDS011;38322;53.108;6.308;2023-04-28T06:13:43;23.40;;;13.13;;
52396;SDS011;38322;53.108;6.308;2023-04-28T06:16:09;19.27;;;12.63;;
52396;SDS011;38322;53.108;6.308;2023-04-28T06:18:35;17.77;;;12.32;;
52396;SDS011;38322;53.108;6.308;2023-04-28T06:21:00;20.27;;;12.63;;
52396;SDS011;38322;53.108;6.308;2023-04-28T06:23:26;14.32;;;10.82;;
52396;SDS011;38322;53.108;6.308;2023-04-28T06:25:52;18.02;;;12.13;;
52396;SDS011;38322;53.108;6.308;2023-04-28T06:28:18;15.93;;;11.43;;
52396;SDS011;38322;53.108;6.308;2023-04-28T06:30:43;15.48;;;11.50;;
52396;SDS011;38322;53.108;6.308;2023-04-28T06:33:09;19.38;;;12.20;;
52396;SDS011;38322;53.108;6.308;2023-04-28T06:35:35;15.07;;;11.73;;
52396;SDS011;38322;53.108;6.308;2023-04-28T06:38:03;19.50;;;12.75;;
52396;SDS011;38322;53.108;6.308;2023-04-28T06:40:29;17.17;;;12.57;;
52396;SDS011;38322;53.108;6.308;2023-04-28T06:42:54;20.13;;;12.40;;
52396;SDS011;38322;53.108;6.308;2023-04-28T06:45:20;21.80;;;13.48;;
52396;SDS011;38322;53.108;6.308;2023-04-28T06:47:46;17.50;;;13.07;;
52396;SDS011;38322;53.108;6.308;2023-04-28T06:50:12;19.50;;;13.20;;
52396;SDS011;38322;53.108;6.308;2023-04-28T06:52:38;15.95;;;12.07;;
52396;SDS011;38322;53.108;6.308;2023-04-28T06:55:05;19.42;;;12.32;;
52396;SDS011;38322;53.108;6.308;2023-04-28T06:57:33;23.63;;;12.77;;
52396;SDS011;38322;53.108;6.308;2023-04-28T06:59:59;19.45;;;13.48;;
52396;SDS011;38322;53.108;6.308;2023-04-28T07:02:25;19.63;;;12.88;;
52396;SDS011;38322;53.108;6.308;2023-04-28T07:04:51;17.38;;;12.35;;
52396;SDS011;38322;53.108;6.308;2023-04-28T07:07:17;25.65;;;13.02;;
52396;SDS011;38322;53.108;6.308;2023-04-28T07:09:42;16.13;;;10.90;;
52396;SDS011;38322;53.108;6.308;2023-04-28T07:12:08;17.33;;;13.00;;
52396;SDS011;38322;53.108;6.308;2023-04-28T07:14:34;15.50;;;11.85;;
52396;SDS011;38322;53.108;6.308;2023-04-28T07:17:00;18.08;;;11.30;;
52396;SDS011;38322;53.108;6.308;2023-04-28T07:19:25;14.75;;;11.73;;
52396;SDS011;38322;53.108;6.308;2023-04-28T07:21:51;22.65;;;13.63;;
52396;SDS011;38322;53.108;6.308;2023-04-28T07:24:17;21.58;;;14.48;;
52396;SDS011;38322;53.108;6.308;2023-04-28T07:26:43;17.20;;;12.43;;
52396;SDS011;38322;53.108;6.308;2023-04-28T07:29:08;16.42;;;12.00;;
52396;SDS011;38322;53.108;6.308;2023-04-28T07:31:36;16.15;;;12.35;;
52396;SDS011;38322;53.108;6.308;2023-04-28T07:34:02;16.65;;;11.98;;
52396;SDS011;38322;53.108;6.308;2023-04-28T07:36:28;17.30;;;12.18;;
52396;SDS011;38322;53.108;6.308;2023-04-28T07:38:54;18.70;;;12.25;;
52396;SDS011;38322;53.108;6.308;2023-04-28T07:41:20;19.65;;;12.50;;
52396;SDS011;38322;53.108;6.308;2023-04-28T07:43:45;16.13;;;11.90;;
52396;SDS011;38322;53.108;6.308;2023-04-28T07:46:12;16.40;;;10.73;;
52396;SDS011;38322;53.108;6.308;2023-04-28T07:48:38;15.88;;;12.05;;
52396;SDS011;38322;53.108;6.308;2023-04-28T07:51:03;18.25;;;12.63;;
52396;SDS011;38322;53.108;6.308;2023-04-28T07:53:29;18.52;;;12.57;;
52396;SDS011;38322;53.108;6.308;2023-04-28T07:55:55;17.17;;;11.63;;
52396;SDS011;38322;53.108;6.308;2023-04-28T07:58:21;19.85;;;12.70;;
52396;SDS011;38322;53.108;6.308;2023-04-28T08:00:47;19.17;;;13.02;;
52396;SDS011;38322;53.108;6.308;2023-04-28T08:03:12;18.00;;;12.82;;
52396;SDS011;38322;53.108;6.308;2023-04-28T08:05:38;17.83;;;11.02;;
52396;SDS011;38322;53.108;6.308;2023-04-28T08:08:05;16.25;;;11.18;;
52396;SDS011;38322;53.108;6.308;2023-04-28T08:10:31;17.42;;;11.90;;
52396;SDS011;38322;53.108;6.308;2023-04-28T08:12:56;15.57;;;12.93;;
52396;SDS011;38322;53.108;6.308;2023-04-28T08:15:23;18.50;;;12.70;;
52396;SDS011;38322;53.108;6.308;2023-04-28T08:17:49;18.55;;;11.80;;
52396;SDS011;38322;53.108;6.308;2023-04-28T08:20:16;17.65;;;11.55;;
52396;SDS011;38322;53.108;6.308;2023-04-28T08:22:44;15.30;;;12.23;;
52396;SDS011;38322;53.108;6.308;2023-04-28T08:25:10;17.40;;;12.63;;
52396;SDS011;38322;53.108;6.308;2023-04-28T08:27:36;18.33;;;12.20;;
52396;SDS011;38322;53.108;6.308;2023-04-28T08:30:06;20.95;;;13.50;;
52396;SDS011;38322;53.108;6.308;2023-04-28T08:32:33;18.77;;;12.90;;
52396;SDS011;38322;53.108;6.308;2023-04-28T08:34:59;17.85;;;13.38;;
52396;SDS011;38322;53.108;6.308;2023-04-28T08:37:26;21.63;;;14.10;;
52396;SDS011;38322;53.108;6.308;2023-04-28T08:39:52;15.30;;;12.07;;
52396;SDS011;38322;53.108;6.308;2023-04-28T08:42:28;20.15;;;13.15;;
52396;SDS011;38322;53.108;6.308;2023-04-28T08:44:55;18.85;;;12.95;;
52396;SDS011;38322;53.108;6.308;2023-04-28T08:47:26;18.63;;;14.38;;
52396;SDS011;38322;53.108;6.308;2023-04-28T08:49:58;17.52;;;13.10;;
52396;SDS011;38322;53.108;6.308;2023-04-28T08:52:28;18.73;;;12.50;;
52396;SDS011;38322;53.108;6.308;2023-04-28T08:54:55;15.48;;;12.30;;
52396;SDS011;38322;53.108;6.308;2023-04-28T08:57:22;14.82;;;11.35;;
52396;SDS011;38322;53.108;6.308;2023-04-28T08:59:52;14.77;;;11.82;;
52396;SDS011;38322;53.108;6.308;2023-04-28T09:02:18;18.45;;;10.82;;
52396;SDS011;38322;53.108;6.308;2023-04-28T09:04:45;16.00;;;11.77;;
52396;SDS011;38322;53.108;6.308;2023-04-28T09:07:11;16.95;;;11.13;;
52396;SDS011;38322;53.108;6.308;2023-04-28T09:09:38;20.10;;;12.68;;
52396;SDS011;38322;53.108;6.308;2023-04-28T09:12:05;15.65;;;10.20;;
52396;SDS011;38322;53.108;6.308;2023-04-28T09:14:32;16.70;;;11.02;;
52396;SDS011;38322;53.108;6.308;2023-04-28T09:17:00;15.55;;;11.65;;
52396;SDS011;38322;53.108;6.308;2023-04-28T09:19:32;14.23;;;11.98;;
52396;SDS011;38322;53.108;6.308;2023-04-28T09:22:00;16.35;;;11.63;;
52396;SDS011;38322;53.108;6.308;2023-04-28T09:24:27;16.92;;;12.10;;
52396;SDS011;38322;53.108;6.308;2023-04-28T09:26:54;17.85;;;12.25;;
52396;SDS011;38322;53.108;6.308;2023-04-28T09:29:21;15.20;;;11.50;;
52396;SDS011;38322;53.108;6.308;2023-04-28T09:31:46;15.38;;;11.15;;
52396;SDS011;38322;53.108;6.308;2023-04-28T09:34:12;14.90;;;10.18;;
52396;SDS011;38322;53.108;6.308;2023-04-28T09:36:38;15.60;;;11.18;;
52396;SDS011;38322;53.108;6.308;2023-04-28T09:39:04;23.05;;;12.60;;
52396;SDS011;38322;53.108;6.308;2023-04-28T09:41:34;17.13;;;12.68;;
52396;SDS011;38322;53.108;6.308;2023-04-28T09:44:13;15.50;;;10.65;;
52396;SDS011;38322;53.108;6.308;2023-04-28T09:46:41;17.52;;;10.10;;
52396;SDS011;38322;53.108;6.308;2023-04-28T09:49:09;15.40;;;11.90;;
52396;SDS011;38322;53.108;6.308;2023-04-28T09:51:35;17.15;;;10.73;;
52396;SDS011;38322;53.108;6.308;2023-04-28T09:54:01;17.20;;;11.20;;
52396;SDS011;38322;53.108;6.308;2023-04-28T09:56:28;12.85;;;10.45;;
52396;SDS011;38322;53.108;6.308;2023-04-28T09:58:56;16.70;;;11.73;;
52396;SDS011;38322;53.108;6.308;2023-04-28T10:01:24;17.98;;;10.48;;
52396;SDS011;38322;53.108;6.308;2023-04-28T10:03:52;14.95;;;10.10;;
52396;SDS011;38322;53.108;6.308;2023-04-28T10:06:19;13.20;;;10.55;;
52396;SDS011;38322;53.108;6.308;2023-04-28T10:08:45;14.85;;;10.00;;
52396;SDS011;38322;53.108;6.308;2023-04-28T10:11:13;12.57;;;9.70;;
52396;SDS011;38322;53.108;6.308;2023-04-28T10:13:41;14.52;;;10.90;;
52396;SDS011;38322;53.108;6.308;2023-04-28T10:16:08;18.55;;;10.18;;
52396;SDS011;38322;53.108;6.308;2023-04-28T10:18:35;11.90;;;10.20;;
52396;SDS011;38322;53.108;6.308;2023-04-28T10:21:03;12.60;;;10.15;;
52396;SDS011;38322;53.108;6.308;2023-04-28T10:23:35;16.65;;;11.38;;
52396;SDS011;38322;53.108;6.308;2023-04-28T10:26:23;19.23;;;11.02;;
52396;SDS011;38322;53.108;6.308;2023-04-28T10:29:11;19.02;;;9.90;;
52396;SDS011;38322;53.108;6.308;2023-04-28T10:31:38;12.77;;;10.00;;
52396;SDS011;38322;53.108;6.308;2023-04-28T10:34:40;18.05;;;10.27;;
52396;SDS011;38322;53.108;6.308;2023-04-28T10:37:06;15.90;;;10.95;;
52396;SDS011;38322;53.108;6.308;2023-04-28T10:39:31;13.07;;;10.48;;
52396;SDS011;38322;53.108;6.308;2023-04-28T10:41:58;20.67;;;10.55;;
52396;SDS011;38322;53.108;6.308;2023-04-28T10:46:59;11.88;;;10.25;;
52396;SDS011;38322;53.108;6.308;2023-04-28T10:50:06;15.43;;;10.75;;
52396;SDS011;38322;53.108;6.308;2023-04-28T11:00:40;15.10;;;11.32;;
52396;SDS011;38322;53.108;6.308;2023-04-28T11:03:07;14.25;;;11.13;;
52396;SDS011;38322;53.108;6.308;2023-04-28T11:05:33;15.73;;;11.15;;
52396;SDS011;38322;53.108;6.308;2023-04-28T11:08:29;15.68;;;10.40;;
52396;SDS011;38322;53.108;6.308;2023-04-28T11:13:38;13.25;;;10.55;;
52396;SDS011;38322;53.108;6.308;2023-04-28T11:16:05;14.02;;;11.30;;
52396;SDS011;38322;53.108;6.308;2023-04-28T11:21:17;13.85;;;9.48;;
52396;SDS011;38322;53.108;6.308;2023-04-28T11:23:44;16.95;;;11.70;;
52396;SDS011;38322;53.108;6.308;2023-04-28T11:26:10;12.38;;;9.40;;
52396;SDS011;38322;53.108;6.308;2023-04-28T11:28:45;14.60;;;10.52;;
52396;SDS011;38322;53.108;6.308;2023-04-28T11:31:18;14.07;;;9.40;;
52396;SDS011;38322;53.108;6.308;2023-04-28T11:33:50;11.63;;;9.93;;
52396;SDS011;38322;53.108;6.308;2023-04-28T11:36:21;12.63;;;9.98;;
52396;SDS011;38322;53.108;6.308;2023-04-28T11:39:01;12.15;;;10.02;;
52396;SDS011;38322;53.108;6.308;2023-04-28T11:41:29;13.32;;;9.90;;
52396;SDS011;38322;53.108;6.308;2023-04-28T11:43:56;13.98;;;9.70;;
52396;SDS011;38322;53.108;6.308;2023-04-28T11:46:22;12.32;;;9.10;;
52396;SDS011;38322;53.108;6.308;2023-04-28T11:48:59;10.52;;;9.52;;
52396;SDS011;38322;53.108;6.308;2023-04-28T11:51:30;12.07;;;9.20;;
52396;SDS011;38322;53.108;6.308;2023-04-28T11:53:58;12.00;;;8.38;;
52396;SDS011;38322;53.108;6.308;2023-04-28T11:56:25;9.77;;;8.77;;
52396;SDS011;38322;53.108;6.308;2023-04-28T11:58:58;13.85;;;9.98;;
52396;SDS011;38322;53.108;6.308;2023-04-28T12:01:25;10.90;;;9.75;;
52396;SDS011;38322;53.108;6.308;2023-04-28T12:03:51;18.42;;;10.20;;
52396;SDS011;38322;53.108;6.308;2023-04-28T12:06:17;9.88;;;8.20;;
52396;SDS011;38322;53.108;6.308;2023-04-28T12:08:43;11.30;;;8.50;;
52396;SDS011;38322;53.108;6.308;2023-04-28T12:11:09;11.52;;;9.00;;
52396;SDS011;38322;53.108;6.308;2023-04-28T12:13:37;11.93;;;8.70;;
52396;SDS011;38322;53.108;6.308;2023-04-28T12:16:04;12.20;;;9.13;;
52396;SDS011;38322;53.108;6.308;2023-04-28T12:18:31;14.38;;;9.63;;
52396;SDS011;38322;53.108;6.308;2023-04-28T12:20:57;10.07;;;8.23;;
52396;SDS011;38322;53.108;6.308;2023-04-28T12:25:56;11.32;;;8.95;;
52396;SDS011;38322;53.108;6.308;2023-04-28T12:28:23;13.77;;;9.48;;
52396;SDS011;38322;53.108;6.308;2023-04-28T12:31:06;12.52;;;10.18;;
52396;SDS011;38322;53.108;6.308;2023-04-28T12:33:33;16.65;;;9.55;;
52396;SDS011;38322;53.108;6.308;2023-04-28T12:36:02;14.23;;;9.52;;
52396;SDS011;38322;53.108;6.308;2023-04-28T12:38:30;11.80;;;9.65;;
52396;SDS011;38322;53.108;6.308;2023-04-28T12:40:56;12.13;;;9.85;;
52396;SDS011;38322;53.108;6.308;2023-04-28T12:43:23;14.40;;;9.35;;
52396;SDS011;38322;53.108;6.308;2023-04-28T12:45:51;13.77;;;10.02;;
52396;SDS011;38322;53.108;6.308;2023-04-28T12:48:18;12.27;;;10.05;;
52396;SDS011;38322;53.108;6.308;2023-04-28T12:50:44;14.15;;;10.45;;
52396;SDS011;38322;53.108;6.308;2023-04-28T12:53:10;11.77;;;9.73;;
52396;SDS011;38322;53.108;6.308;2023-04-28T12:55:36;13.95;;;10.98;;
52396;SDS011;38322;53.108;6.308;2023-04-28T12:58:04;14.27;;;10.05;;
52396;SDS011;38322;53.108;6.308;2023-04-28T13:00:30;12.25;;;10.07;;
52396;SDS011;38322;53.108;6.308;2023-04-28T13:02:56;17.92;;;12.60;;
52396;SDS011;38322;53.108;6.308;2023-04-28T13:05:22;17.90;;;11.70;;
52396;SDS011;38322;53.108;6.308;2023-04-28T13:07:48;12.65;;;10.23;;
52396;SDS011;38322;53.108;6.308;2023-04-28T13:10:15;14.93;;;12.30;;
52396;SDS011;38322;53.108;6.308;2023-04-28T13:12:42;11.48;;;10.13;;
52396;SDS011;38322;53.108;6.308;2023-04-28T13:15:08;20.52;;;12.00;;
52396;SDS011;38322;53.108;6.308;2023-04-28T13:17:34;23.67;;;11.82;;
52396;SDS011;38322;53.108;6.308;2023-04-28T13:20:00;16.77;;;12.05;;
52396;SDS011;38322;53.108;6.308;2023-04-28T13:22:28;14.73;;;12.50;;
52396;SDS011;38322;53.108;6.308;2023-04-28T13:24:53;18.55;;;11.68;;
52396;SDS011;38322;53.108;6.308;2023-04-28T13:27:20;12.50;;;11.13;;
52396;SDS011;38322;53.108;6.308;2023-04-28T13:29:46;16.63;;;11.38;;
52396;SDS011;38322;53.108;6.308;2023-04-28T13:32:12;14.07;;;11.75;;
52396;SDS011;38322;53.108;6.308;2023-04-28T13:34:37;14.05;;;12.57;;
52396;SDS011;38322;53.108;6.308;2023-04-28T13:37:04;15.50;;;13.10;;
52396;SDS011;38322;53.108;6.308;2023-04-28T13:39:30;16.20;;;12.80;;
52396;SDS011;38322;53.108;6.308;2023-04-28T13:41:56;15.50;;;11.63;;
52396;SDS011;38322;53.108;6.308;2023-04-28T13:44:22;14.93;;;12.60;;
52396;SDS011;38322;53.108;6.308;2023-04-28T13:46:48;19.58;;;13.95;;
52396;SDS011;38322;53.108;6.308;2023-04-28T13:49:14;15.80;;;13.15;;
52396;SDS011;38322;53.108;6.308;2023-04-28T13:51:40;13.75;;;11.90;;
52396;SDS011;38322;53.108;6.308;2023-04-28T13:54:07;17.73;;;15.57;;
52396;SDS011;38322;53.108;6.308;2023-04-28T13:56:35;14.98;;;11.98;;
52396;SDS011;38322;53.108;6.308;2023-04-28T13:59:01;14.23;;;12.77;;
52396;SDS011;38322;53.108;6.308;2023-04-28T14:01:27;15.20;;;13.57;;
52396;SDS011;38322;53.108;6.308;2023-04-28T14:03:53;22.85;;;14.10;;
52396;SDS011;38322;53.108;6.308;2023-04-28T14:06:19;15.77;;;14.07;;
52396;SDS011;38322;53.108;6.308;2023-04-28T14:08:45;15.77;;;14.05;;
52396;SDS011;38322;53.108;6.308;2023-04-28T14:11:12;20.88;;;14.75;;
52396;SDS011;38322;53.108;6.308;2023-04-28T14:13:38;19.15;;;14.30;;
52396;SDS011;38322;53.108;6.308;2023-04-28T14:16:03;15.75;;;14.10;;
52396;SDS011;38322;53.108;6.308;2023-04-28T14:18:29;16.30;;;14.68;;
52396;SDS011;38322;53.108;6.308;2023-04-28T14:20:57;15.18;;;12.82;;
52396;SDS011;38322;53.108;6.308;2023-04-28T14:23:24;17.58;;;15.70;;
52396;SDS011;38322;53.108;6.308;2023-04-28T14:25:51;18.40;;;15.23;;
52396;SDS011;38322;53.108;6.308;2023-04-28T14:28:22;17.42;;;15.40;;
52396;SDS011;38322;53.108;6.308;2023-04-28T14:30:48;20.23;;;15.05;;
52396;SDS011;38322;53.108;6.308;2023-04-28T14:33:14;17.67;;;15.82;;
52396;SDS011;38322;53.108;6.308;2023-04-28T14:35:40;17.15;;;15.48;;
52396;SDS011;38322;53.108;6.308;2023-04-28T14:38:05;17.48;;;15.77;;
52396;SDS011;38322;53.108;6.308;2023-04-28T14:40:31;19.63;;;17.58;;
52396;SDS011;38322;53.108;6.308;2023-04-28T14:42:57;21.80;;;18.80;;
52396;SDS011;38322;53.108;6.308;2023-04-28T14:45:23;25.55;;;20.38;;
52396;SDS011;38322;53.108;6.308;2023-04-28T14:47:49;24.77;;;20.70;;
52396;SDS011;38322;53.108;6.308;2023-04-28T14:50:15;23.77;;;21.27;;
52396;SDS011;38322;53.108;6.308;2023-04-28T14:52:40;20.95;;;17.38;;
52396;SDS011;38322;53.108;6.308;2023-04-28T14:55:06;15.60;;;14.00;;
52396;SDS011;38322;53.108;6.308;2023-04-28T14:57:33;16.08;;;14.48;;
52396;SDS011;38322;53.108;6.308;2023-04-28T14:59:59;19.60;;;14.60;;
52396;SDS011;38322;53.108;6.308;2023-04-28T15:02:25;16.65;;;14.95;;
52396;SDS011;38322;53.108;6.308;2023-04-28T15:04:53;17.05;;;15.32;;
52396;SDS011;38322;53.108;6.308;2023-04-28T15:07:21;18.73;;;16.50;;
52396;SDS011;38322;53.108;6.308;2023-04-28T15:09:47;21.73;;;17.23;;
52396;SDS011;38322;53.108;6.308;2023-04-28T15:12:14;21.67;;;18.23;;
52396;SDS011;38322;53.108;6.308;2023-04-28T15:14:40;19.33;;;16.40;;
52396;SDS011;38322;53.108;6.308;2023-04-28T15:17:06;19.27;;;17.25;;
52396;SDS011;38322;53.108;6.308;2023-04-28T15:19:33;17.42;;;15.63;;
52396;SDS011;38322;53.108;6.308;2023-04-28T15:21:59;17.48;;;15.68;;
52396;SDS011;38322;53.108;6.308;2023-04-28T15:24:25;20.85;;;16.85;;
52396;SDS011;38322;53.108;6.308;2023-04-28T15:26:51;18.80;;;16.85;;
52396;SDS011;38322;53.108;6.308;2023-04-28T15:29:18;20.67;;;16.98;;
52396;SDS011;38322;53.108;6.308;2023-04-28T15:31:44;18.55;;;14.75;;
52396;SDS011;38322;53.108;6.308;2023-04-28T15:34:10;14.32;;;12.82;;
52396;SDS011;38322;53.108;6.308;2023-04-28T15:36:37;14.90;;;13.50;;
52396;SDS011;38322;53.108;6.308;2023-04-28T15:39:04;14.57;;;12.90;;
52396;SDS011;38322;53.108;6.308;2023-04-28T15:41:31;15.65;;;14.00;;
52396;SDS011;38322;53.108;6.308;2023-04-28T15:43:58;17.52;;;15.50;;
52396;SDS011;38322;53.108;6.308;2023-04-28T15:46:25;17.13;;;14.05;;
52396;SDS011;38322;53.108;6.308;2023-04-28T15:48:51;15.95;;;14.30;;
52396;SDS011;38322;53.108;6.308;2023-04-28T15:51:19;19.40;;;17.13;;
52396;SDS011;38322;53.108;6.308;2023-04-28T15:53:45;15.52;;;13.40;;
52396;SDS011;38322;53.108;6.308;2023-04-28T15:56:10;16.42;;;14.85;;
52396;SDS011;38322;53.108;6.308;2023-04-28T15:58:36;17.48;;;15.68;;
52396;SDS011;38322;53.108;6.308;2023-04-28T16:01:02;16.50;;;14.73;;
52396;SDS011;38322;53.108;6.308;2023-04-28T16:03:28;15.90;;;14.20;;
52396;SDS011;38322;53.108;6.308;2023-04-28T16:05:54;18.70;;;15.77;;
52396;SDS011;38322;53.108;6.308;2023-04-28T16:08:20;21.15;;;18.55;;
52396;SDS011;38322;53.108;6.308;2023-04-28T16:10:53;19.92;;;17.67;;
52396;SDS011;38322;53.108;6.308;2023-04-28T16:13:19;21.02;;;18.63;;
52396;SDS011;38322;53.108;6.308;2023-04-28T16:15:45;21.17;;;18.92;;
52396;SDS011;38322;53.108;6.308;2023-04-28T16:18:11;19.48;;;17.50;;
52396;SDS011;38322;53.108;6.308;2023-04-28T16:20:37;22.13;;;18.60;;
52396;SDS011;38322;53.108;6.308;2023-04-28T16:23:04;20.90;;;17.58;;
52396;SDS011;38322;53.108;6.308;2023-04-28T16:25:30;20.92;;;18.45;;
52396;SDS011;38322;53.108;6.308;2023-04-28T16:27:56;21.35;;;17.45;;
52396;SDS011;38322;53.108;6.308;2023-04-28T16:30:22;19.90;;;17.83;;
52396;SDS011;38322;53.108;6.308;2023-04-28T16:32:48;20.88;;;18.67;;
52396;SDS011;38322;53.108;6.308;2023-04-28T16:35:14;19.58;;;16.35;;
52396;SDS011;38322;53.108;6.308;2023-04-28T16:37:39;18.95;;;16.95;;
52396;SDS011;38322;53.108;6.308;2023-04-28T16:40:06;18.70;;;16.60;;
52396;SDS011;38322;53.108;6.308;2023-04-28T16:42:33;19.75;;;17.63;;
52396;SDS011;38322;53.108;6.308;2023-04-28T16:44:59;20.15;;;17.42;;
52396;SDS011;38322;53.108;6.308;2023-04-28T16:47:25;22.10;;;18.85;;
52396;SDS011;38322;53.108;6.308;2023-04-28T16:49:52;20.35;;;18.25;;
52396;SDS011;38322;53.108;6.308;2023-04-28T16:52:18;18.17;;;16.10;;
52396;SDS011;38322;53.108;6.308;2023-04-28T16:54:44;18.15;;;16.33;;
52396;SDS011;38322;53.108;6.308;2023-04-28T16:57:09;18.27;;;16.48;;
52396;SDS011;38322;53.108;6.308;2023-04-28T16:59:35;17.35;;;15.65;;
52396;SDS011;38322;53.108;6.308;2023-04-28T17:02:01;18.40;;;15.43;;
52396;SDS011;38322;53.108;6.308;2023-04-28T17:04:27;18.05;;;14.73;;
52396;SDS011;38322;53.108;6.308;2023-04-28T17:06:54;21.45;;;15.93;;
52396;SDS011;38322;53.108;6.308;2023-04-28T17:09:20;15.15;;;13.65;;
52396;SDS011;38322;53.108;6.308;2023-04-28T17:11:46;15.32;;;13.73;;
52396;SDS011;38322;53.108;6.308;2023-04-28T17:14:13;16.45;;;14.85;;
52396;SDS011;38322;53.108;6.308;2023-04-28T17:16:39;15.35;;;13.82;;
52396;SDS011;38322;53.108;6.308;2023-04-28T17:19:05;14.65;;;13.25;;
52396;SDS011;38322;53.108;6.308;2023-04-28T17:21:31;14.98;;;13.40;;
52396;SDS011;38322;53.108;6.308;2023-04-28T17:23:58;14.40;;;13.00;;
52396;SDS011;38322;53.108;6.308;2023-04-28T17:26:24;15.50;;;14.05;;
52396;SDS011;38322;53.108;6.308;2023-04-28T17:28:51;16.13;;;14.60;;
52396;SDS011;38322;53.108;6.308;2023-04-28T17:31:20;16.77;;;15.05;;
52396;SDS011;38322;53.108;6.308;2023-04-28T17:33:48;18.33;;;16.30;;
52396;SDS011;38322;53.108;6.308;2023-04-28T17:36:15;18.38;;;16.45;;
52396;SDS011;38322;53.108;6.308;2023-04-28T17:38:41;15.75;;;14.13;;
52396;SDS011;38322;53.108;6.308;2023-04-28T17:41:07;17.52;;;14.95;;
52396;SDS011;38322;53.108;6.308;2023-04-28T17:43:33;18.02;;;16.13;;
52396;SDS011;38322;53.108;6.308;2023-04-28T17:45:59;17.50;;;15.10;;
52396;SDS011;38322;53.108;6.308;2023-04-28T17:48:25;14.85;;;13.35;;
52396;SDS011;38322;53.108;6.308;2023-04-28T17:50:51;12.13;;;11.02;;
52396;SDS011;38322;53.108;6.308;2023-04-28T17:53:17;15.82;;;13.88;;
52396;SDS011;38322;53.108;6.308;2023-04-28T17:55:43;17.50;;;12.63;;
52396;SDS011;38322;53.108;6.308;2023-04-28T17:58:09;13.93;;;12.50;;
52396;SDS011;38322;53.108;6.308;2023-04-28T18:00:35;14.93;;;13.35;;
52396;SDS011;38322;53.108;6.308;2023-04-28T18:03:01;13.98;;;12.52;;
52396;SDS011;38322;53.108;6.308;2023-04-28T18:05:27;13.23;;;11.88;;
52396;SDS011;38322;53.108;6.308;2023-04-28T18:07:54;17.15;;;14.02;;
52396;SDS011;38322;53.108;6.308;2023-04-28T18:10:20;22.05;;;18.13;;
52396;SDS011;38322;53.108;6.308;2023-04-28T18:12:46;28.40;;;23.30;;
52396;SDS011;38322;53.108;6.308;2023-04-28T18:15:12;27.55;;;20.08;;
52396;SDS011;38322;53.108;6.308;2023-04-28T18:17:38;20.95;;;18.67;;
52396;SDS011;38322;53.108;6.308;2023-04-28T18:20:04;21.15;;;18.17;;
52396;SDS011;38322;53.108;6.308;2023-04-28T18:22:31;22.50;;;19.67;;
52396;SDS011;38322;53.108;6.308;2023-04-28T18:24:57;20.17;;;18.08;;
52396;SDS011;38322;53.108;6.308;2023-04-28T18:27:24;20.75;;;17.60;;
52396;SDS011;38322;53.108;6.308;2023-04-28T18:29:50;22.10;;;19.85;;
52396;SDS011;38322;53.108;6.308;2023-04-28T18:32:16;24.90;;;21.42;;
52396;SDS011;38322;53.108;6.308;2023-04-28T18:34:42;24.83;;;22.05;;
52396;SDS011;38322;53.108;6.308;2023-04-28T18:37:08;25.48;;;21.77;;
52396;SDS011;38322;53.108;6.308;2023-04-28T18:39:35;29.92;;;25.20;;
52396;SDS011;38322;53.108;6.308;2023-04-28T18:42:01;29.25;;;24.00;;
52396;SDS011;38322;53.108;6.308;2023-04-28T18:44:28;29.23;;;22.90;;
52396;SDS011;38322;53.108;6.308;2023-04-28T18:46:55;26.08;;;22.63;;
52396;SDS011;38322;53.108;6.308;2023-04-28T18:49:21;27.65;;;23.40;;
52396;SDS011;38322;53.108;6.308;2023-04-28T18:51:48;29.42;;;22.17;;
52396;SDS011;38322;53.108;6.308;2023-04-28T18:54:15;24.95;;;22.02;;
52396;SDS011;38322;53.108;6.308;2023-04-28T18:56:41;32.13;;;25.17;;
52396;SDS011;38322;53.108;6.308;2023-04-28T18:59:08;27.30;;;21.92;;
52396;SDS011;38322;53.108;6.308;2023-04-28T19:01:35;30.55;;;24.42;;
52396;SDS011;38322;53.108;6.308;2023-04-28T19:04:01;34.40;;;25.33;;
52396;SDS011;38322;53.108;6.308;2023-04-28T19:06:28;34.10;;;26.45;;
52396;SDS011;38322;53.108;6.308;2023-04-28T19:08:54;27.85;;;22.00;;
52396;SDS011;38322;53.108;6.308;2023-04-28T19:11:21;33.45;;;25.58;;
52396;SDS011;38322;53.108;6.308;2023-04-28T19:13:47;26.55;;;23.45;;
52396;SDS011;38322;53.108;6.308;2023-04-28T19:16:13;29.83;;;23.95;;
52396;SDS011;38322;53.108;6.308;2023-04-28T19:18:39;37.20;;;27.70;;
52396;SDS011;38322;53.108;6.308;2023-04-28T19:21:06;38.72;;;27.88;;
52396;SDS011;38322;53.108;6.308;2023-04-28T19:23:32;38.28;;;27.70;;
52396;SDS011;38322;53.108;6.308;2023-04-28T19:25:59;35.42;;;26.77;;
52396;SDS011;38322;53.108;6.308;2023-04-28T19:28:25;38.50;;;28.73;;
52396;SDS011;38322;53.108;6.308;2023-04-28T19:30:53;37.05;;;27.67;;
52396;SDS011;38322;53.108;6.308;2023-04-28T19:33:21;33.88;;;27.27;;
52396;SDS011;38322;53.108;6.308;2023-04-28T19:35:48;42.50;;;30.85;;
52396;SDS011;38322;53.108;6.308;2023-04-28T19:38:16;36.78;;;28.08;;
52396;SDS011;38322;53.108;6.308;2023-04-28T19:40:42;38.97;;;29.23;;
52396;SDS011;38322;53.108;6.308;2023-04-28T19:43:09;43.15;;;30.13;;